createdAt,value
2022-08-05T00:02:58.630Z,18.82
2022-08-05T00:06:21.202Z,18.84
2022-08-05T00:09:32.326Z,18.80
2022-08-05T00:12:56.032Z,18.78
2022-08-05T00:16:02.688Z,18.69
2022-08-05T00:19:08.324Z,18.67
2022-08-05T00:22:13.958Z,18.72
2022-08-05T00:25:26.371Z,18.61
2022-08-05T00:28:56.381Z,18.60
2022-08-05T00:32:12.445Z,18.53
2022-08-05T00:35:20.436Z,18.47
2022-08-05T00:38:30.783Z,18.48
2022-08-05T00:41:52.062Z,18.41
2022-08-05T00:45:13.572Z,18.46
2022-08-05T00:48:31.188Z,18.44
2022-08-05T00:51:50.807Z,18.47
2022-08-05T00:55:12.468Z,18.41
2022-08-05T00:58:21.482Z,18.28
2022-08-05T01:01:48.014Z,18.24
2022-08-05T01:04:59.305Z,18.22
2022-08-05T01:08:40.389Z,18.24
2022-08-05T01:11:44.599Z,18.00
2022-08-05T01:15:05.863Z,17.90
2022-08-05T01:18:40.922Z,17.76
2022-08-05T01:22:18.815Z,17.88
2022-08-05T01:25:56.772Z,17.95
2022-08-05T01:29:12.389Z,17.89
2022-08-05T01:32:28.171Z,17.72
2022-08-05T01:35:51.215Z,17.69
2022-08-05T01:39:05.384Z,17.61
2022-08-05T01:42:19.300Z,17.55
2022-08-05T01:45:34.848Z,17.30
2022-08-05T01:48:55.249Z,17.33
2022-08-05T01:52:17.532Z,17.13
2022-08-05T01:55:28.145Z,16.95
2022-08-05T01:58:41.070Z,16.92
2022-08-05T02:02:04.553Z,16.91
2022-08-05T02:05:19.785Z,16.85
2022-08-05T02:08:31.667Z,16.75
2022-08-05T02:11:52.673Z,16.76
2022-08-05T02:15:13.357Z,16.65
2022-08-05T02:18:35.660Z,16.72
2022-08-05T02:21:55.531Z,16.71
2022-08-05T02:25:08.105Z,16.63
2022-08-05T02:28:28.253Z,16.71
2022-08-05T02:31:40.567Z,16.62
2022-08-05T02:34:55.047Z,16.62
2022-08-05T02:38:09.141Z,16.55
2022-08-05T02:41:20.821Z,16.46
2022-08-05T02:44:33.392Z,16.44
2022-08-05T02:48:07.017Z,16.46
2022-08-05T02:51:28.463Z,16.31
2022-08-05T02:54:52.356Z,16.40
2022-08-05T02:58:09.762Z,16.27
2022-08-05T03:01:27.979Z,16.18
2022-08-05T03:04:43.669Z,16.05
2022-08-05T03:08:01.263Z,16.09
2022-08-05T03:11:57.059Z,15.96
2022-08-05T03:14:53.240Z,15.95
2022-08-05T03:18:02.497Z,15.86
2022-08-05T03:21:14.192Z,15.82
2022-08-05T03:24:33.626Z,15.81
2022-08-05T03:27:59.108Z,15.84
2022-08-05T03:31:08.475Z,15.91
2022-08-05T03:34:14.176Z,16.04
2022-08-05T03:37:19.886Z,16.15
2022-08-05T03:40:32.443Z,16.04
2022-08-05T03:44:08.272Z,16.07
2022-08-05T03:47:26.190Z,15.99
2022-08-05T03:50:53.020Z,15.94
2022-08-05T03:56:01.973Z,15.85
2022-08-05T03:57:44.553Z,15.88
2022-08-05T04:01:04.039Z,15.80
2022-08-05T04:04:21.206Z,15.76
2022-08-05T04:07:33.016Z,15.77
2022-08-05T04:10:39.333Z,15.89
2022-08-05T04:13:53.476Z,15.94
2022-08-05T04:17:00.331Z,16.07
2022-08-05T04:20:14.104Z,16.30
2022-08-05T04:23:20.824Z,16.71
2022-08-05T04:26:46.475Z,17.12
2022-08-05T04:29:54.929Z,17.55
2022-08-05T04:33:00.748Z,17.59
2022-08-05T04:36:15.972Z,17.79
2022-08-05T04:39:35.409Z,18.02
2022-08-05T04:42:41.229Z,18.21
2022-08-05T04:45:54.908Z,18.46
2022-08-05T04:49:01.316Z,19.09
2022-08-05T04:52:07.772Z,19.24
2022-08-05T04:55:15.420Z,19.69
2022-08-05T04:58:21.990Z,19.71
2022-08-05T05:02:06.279Z,19.49
2022-08-05T05:05:02.131Z,19.81
2022-08-05T05:08:14.462Z,19.77
2022-08-05T05:11:52.776Z,20.22
2022-08-05T05:15:03.707Z,20.13
2022-08-05T05:18:31.451Z,19.91
2022-08-05T05:21:39.535Z,20.11
2022-08-05T05:24:58.323Z,20.85
2022-08-05T05:28:05.498Z,20.78
2022-08-05T05:31:11.059Z,21.30
2022-08-05T05:34:24.005Z,21.46
2022-08-05T05:37:37.460Z,21.48
2022-08-05T05:40:58.958Z,22.10
2022-08-05T05:44:04.630Z,22.11
2022-08-05T05:48:06.246Z,22.54
2022-08-05T05:50:58.403Z,23.04
2022-08-05T05:54:21.517Z,23.34
2022-08-05T05:57:52.441Z,23.68
2022-08-05T06:01:02.422Z,24.12
2022-08-05T06:04:19.486Z,23.98
2022-08-05T06:07:41.736Z,25.21
2022-08-05T06:10:52.534Z,25.83
2022-08-05T06:14:00.289Z,25.45
2022-08-05T06:17:24.373Z,25.37
2022-08-05T06:20:32.449Z,25.62
2022-08-05T06:23:43.939Z,24.98
2022-08-05T06:26:52.397Z,24.64
2022-08-05T06:30:04.173Z,25.53
2022-08-05T06:33:11.745Z,25.44
2022-08-05T06:36:25.869Z,25.22
2022-08-05T06:39:34.420Z,26.22
2022-08-05T06:42:40.412Z,25.42
2022-08-05T06:46:03.708Z,25.57
2022-08-05T06:49:13.763Z,26.35
2022-08-05T06:52:37.427Z,26.02
2022-08-05T06:55:46.626Z,25.94
2022-08-05T06:58:52.270Z,26.71
2022-08-05T07:01:57.800Z,27.94
2022-08-05T07:05:04.500Z,28.75
2022-08-05T07:08:21.123Z,29.07
2022-08-05T07:11:51.620Z,28.24
2022-08-05T07:15:09.754Z,28.73
2022-08-05T07:18:27.279Z,29.79
2022-08-05T07:21:59.492Z,29.49
2022-08-05T07:25:23.869Z,30.69
2022-08-05T07:28:33.688Z,31.29
2022-08-05T07:31:40.967Z,30.23
2022-08-05T07:35:00.748Z,30.74
2022-08-05T07:38:33.991Z,30.32
2022-08-05T07:42:09.360Z,31.01
2022-08-05T07:45:13.777Z,29.67
2022-08-05T07:49:00.947Z,30.35
2022-08-05T07:51:55.338Z,29.84
2022-08-05T07:55:01.712Z,29.77
2022-08-05T07:58:09.911Z,30.09
2022-08-05T08:01:52.139Z,29.43
2022-08-05T08:05:04.157Z,30.48
2022-08-05T08:08:12.238Z,30.03
2022-08-05T08:11:18.208Z,29.50
2022-08-05T08:14:37.335Z,29.78
2022-08-05T08:17:52.796Z,30.63
2022-08-05T08:21:02.768Z,30.54
2022-08-05T08:24:13.778Z,31.13
2022-08-05T08:27:22.190Z,30.82
2022-08-05T08:30:47.695Z,30.73
2022-08-05T08:34:04.734Z,31.20
2022-08-05T08:37:10.943Z,31.87
2022-08-05T08:40:16.602Z,31.83
2022-08-05T08:45:20.788Z,32.24
2022-08-05T08:46:51.138Z,33.24
2022-08-05T08:50:22.509Z,33.38
2022-08-05T08:53:31.271Z,33.80
2022-08-05T08:56:47.762Z,34.48
2022-08-05T08:59:56.856Z,35.03
2022-08-05T09:03:08.413Z,34.91
2022-08-05T09:06:21.072Z,35.31
2022-08-05T09:09:34.574Z,36.16
2022-08-05T09:12:42.066Z,36.19
2022-08-05T09:15:47.781Z,36.42
2022-08-05T09:18:53.497Z,37.26
2022-08-05T09:22:28.835Z,37.45
2022-08-05T09:26:00.172Z,37.24
2022-08-05T09:29:04.832Z,36.92
2022-08-05T09:32:45.552Z,37.35
2022-08-05T09:35:41.727Z,36.85
2022-08-05T09:39:16.816Z,36.61
2022-08-05T09:42:28.396Z,37.10
2022-08-05T09:46:07.169Z,36.26
2022-08-05T09:49:54.635Z,36.39
2022-08-05T09:53:01.728Z,36.42
2022-08-05T09:56:12.864Z,37.36
2022-08-05T09:59:19.273Z,37.57
2022-08-05T10:02:35.974Z,37.95
2022-08-05T10:05:42.591Z,37.20
2022-08-05T10:08:53.959Z,36.91
2022-08-05T10:12:30.758Z,36.39
2022-08-05T10:15:44.152Z,36.49
2022-08-05T10:18:55.505Z,35.95
2022-08-05T10:22:07.540Z,35.86
2022-08-05T10:25:15.179Z,35.90
2022-08-05T10:28:29.158Z,36.20
2022-08-05T10:32:52.339Z,36.03
2022-08-05T10:35:05.260Z,35.92
2022-08-05T10:38:12.262Z,34.12
2022-08-05T10:41:44.885Z,32.94
2022-08-05T10:44:59.436Z,33.19
2022-08-05T10:48:52.661Z,34.75
2022-08-05T10:52:05.209Z,33.90
2022-08-05T10:55:15.996Z,34.78
2022-08-05T10:58:47.794Z,33.98
2022-08-05T11:02:14.764Z,33.18
2022-08-05T11:05:39.790Z,33.23
2022-08-05T11:09:32.298Z,33.29
2022-08-05T11:12:50.802Z,34.61
2022-08-05T11:16:47.772Z,34.97
2022-08-05T11:20:10.937Z,35.07
2022-08-05T11:24:04.102Z,33.45
2022-08-05T11:27:45.807Z,31.44
2022-08-05T11:31:54.519Z,31.50
2022-08-05T11:35:00.928Z,32.87
2022-08-05T11:38:28.578Z,32.89
2022-08-05T11:42:01.216Z,33.63
2022-08-05T11:45:14.457Z,34.34
2022-08-05T11:48:33.997Z,34.22
2022-08-05T11:51:49.381Z,33.40
2022-08-05T11:54:56.580Z,34.08
2022-08-05T11:58:09.999Z,33.89
2022-08-05T12:01:22.189Z,32.82
2022-08-05T12:04:30.716Z,32.57
2022-08-05T12:08:07.815Z,32.39
2022-08-05T12:11:22.858Z,33.58
2022-08-05T12:14:28.487Z,34.56
2022-08-05T12:18:03.004Z,34.89
2022-08-05T12:21:15.506Z,34.40
2022-08-05T12:24:25.648Z,34.19
2022-08-05T12:27:33.483Z,34.18
2022-08-05T12:30:45.795Z,34.00
2022-08-05T12:33:53.344Z,34.33
2022-08-05T12:37:03.314Z,33.88
2022-08-05T12:40:20.685Z,33.15
2022-08-05T12:43:32.429Z,33.01
2022-08-05T12:46:45.717Z,32.27
2022-08-05T12:50:04.622Z,32.57
2022-08-05T12:53:36.701Z,32.40
2022-08-05T12:56:53.462Z,31.56
2022-08-05T13:01:57.623Z,31.27
2022-08-05T13:03:32.321Z,31.53
2022-08-05T13:06:51.535Z,31.57
2022-08-05T13:10:08.053Z,31.86
2022-08-05T13:14:04.569Z,31.72
2022-08-05T13:16:59.041Z,31.46
2022-08-05T13:20:09.179Z,31.65
2022-08-05T13:23:22.149Z,32.04
2022-08-05T13:26:29.815Z,31.71
2022-08-05T13:29:39.179Z,31.60
2022-08-05T13:33:04.757Z,31.54
2022-08-05T13:36:10.562Z,31.80
2022-08-05T13:40:13.196Z,31.58
2022-08-05T13:42:44.142Z,31.49
2022-08-05T13:45:52.430Z,31.67
2022-08-05T13:49:00.930Z,31.91
2022-08-05T13:52:14.726Z,32.00
2022-08-05T13:55:41.409Z,32.15
2022-08-05T13:58:48.190Z,32.05
2022-08-05T14:02:05.512Z,32.05
2022-08-05T14:05:19.464Z,32.20
2022-08-05T14:08:35.862Z,31.68
2022-08-05T14:12:04.105Z,31.57
2022-08-05T14:16:04.960Z,31.12
2022-08-05T14:18:38.152Z,31.15
2022-08-05T14:22:10.183Z,31.46
2022-08-05T14:25:19.196Z,31.70
2022-08-05T14:28:28.245Z,31.87
2022-08-05T14:32:02.220Z,31.90
2022-08-05T14:35:02.516Z,31.18
2022-08-05T14:38:08.148Z,31.31
2022-08-05T14:41:33.962Z,31.25
2022-08-05T14:44:41.800Z,31.32
2022-08-05T14:48:02.890Z,30.75
2022-08-05T14:51:15.473Z,30.69
2022-08-05T14:54:27.575Z,31.03
2022-08-05T14:57:54.850Z,31.30
2022-08-05T15:01:01.518Z,31.60
2022-08-05T15:04:11.590Z,31.55
2022-08-05T15:08:08.587Z,31.58
2022-08-05T15:10:46.173Z,31.89
2022-08-05T15:13:52.489Z,31.94
2022-08-05T15:16:58.593Z,32.07
2022-08-05T15:20:05.347Z,32.21
2022-08-05T15:23:16.004Z,32.11
2022-08-05T15:26:32.234Z,31.72
2022-08-05T15:29:41.955Z,31.36
2022-08-05T15:32:48.209Z,31.46
2022-08-05T15:35:53.984Z,31.82
2022-08-05T15:40:39.844Z,31.74
2022-08-05T15:42:56.822Z,31.79
2022-08-05T15:46:00.551Z,31.69
2022-08-05T15:49:09.833Z,31.53
2022-08-05T15:52:29.175Z,31.49
2022-08-05T15:56:01.985Z,31.51
2022-08-05T15:59:20.235Z,31.47
2022-08-05T16:02:29.127Z,31.53
2022-08-05T16:05:35.274Z,31.68
2022-08-05T16:08:45.016Z,31.75
2022-08-05T16:11:54.322Z,31.83
2022-08-05T16:15:00.727Z,31.75
2022-08-05T16:18:09.143Z,31.87
2022-08-05T16:21:15.102Z,31.69
2022-08-05T16:24:41.223Z,31.68
2022-08-05T16:28:04.925Z,31.77
2022-08-05T16:31:11.532Z,31.40
2022-08-05T16:34:23.306Z,31.33
2022-08-05T16:38:15.234Z,31.24
2022-08-05T16:41:00.788Z,31.43
2022-08-05T16:44:09.740Z,31.47
2022-08-05T16:47:28.585Z,31.44
2022-08-05T16:50:42.050Z,31.47
2022-08-05T16:54:05.275Z,31.39
2022-08-05T16:57:22.185Z,31.40
2022-08-05T17:00:34.890Z,31.30
2022-08-05T17:03:46.025Z,31.11
2022-08-05T17:06:53.113Z,30.97
2022-08-05T17:09:59.466Z,31.00
2022-08-05T17:13:05.607Z,31.05
2022-08-05T17:16:30.121Z,30.97
2022-08-05T17:19:39.481Z,30.83
2022-08-05T17:22:45.729Z,30.82
2022-08-05T17:26:02.250Z,30.68
2022-08-05T17:29:09.901Z,30.52
2022-08-05T17:32:19.397Z,30.46
2022-08-05T17:35:26.107Z,30.31
2022-08-05T17:38:41.161Z,30.26
2022-08-05T17:42:17.519Z,30.17
2022-08-05T17:45:20.095Z,30.15
2022-08-05T17:48:33.295Z,30.08
2022-08-05T17:51:40.015Z,29.98
2022-08-05T17:54:46.501Z,29.84
2022-08-05T17:57:52.563Z,29.74
2022-08-05T18:00:58.472Z,29.59
2022-08-05T18:04:11.838Z,29.41
2022-08-05T18:07:17.755Z,29.09
2022-08-05T18:10:23.560Z,28.79
2022-08-05T18:13:29.190Z,28.71
2022-08-05T18:16:51.451Z,28.55
2022-08-05T18:20:00.590Z,28.51
2022-08-05T18:23:09.210Z,28.43
2022-08-05T18:26:18.735Z,28.32
2022-08-05T18:29:40.406Z,28.18
2022-08-05T18:32:53.177Z,27.95
2022-08-05T18:36:04.271Z,27.75
2022-08-05T18:39:42.293Z,27.65
2022-08-05T18:42:39.408Z,27.49
2022-08-05T18:45:45.944Z,27.22
2022-08-05T18:48:53.686Z,26.88
2022-08-05T18:52:14.447Z,26.40
2022-08-05T18:55:20.480Z,26.13
2022-08-05T18:58:29.085Z,25.93
2022-08-05T19:01:47.583Z,25.85
2022-08-05T19:06:12.227Z,25.80
2022-08-05T19:08:31.314Z,25.73
2022-08-05T19:11:59.356Z,25.59
2022-08-05T19:15:05.068Z,25.55
2022-08-05T19:18:20.833Z,25.48
2022-08-05T19:21:34.481Z,25.42
2022-08-05T19:24:54.434Z,25.35
2022-08-05T19:28:02.306Z,25.37
2022-08-05T19:31:09.646Z,25.43
2022-08-05T19:34:19.458Z,25.43
2022-08-05T19:38:04.643Z,25.40
2022-08-05T19:40:57.987Z,25.19
2022-08-05T19:44:13.494Z,25.06
2022-08-05T19:47:20.019Z,24.97
2022-08-05T19:50:31.323Z,24.95
2022-08-05T19:54:04.207Z,24.82
2022-08-05T19:57:10.221Z,24.70
2022-08-05T20:00:16.881Z,24.58
2022-08-05T20:03:26.398Z,24.41
2022-08-05T20:06:45.968Z,24.34
2022-08-05T20:09:54.395Z,24.27
2022-08-05T20:13:10.360Z,24.16
2022-08-05T20:16:34.804Z,24.00
2022-08-05T20:19:42.153Z,23.91
2022-08-05T20:22:47.858Z,23.96
2022-08-05T20:25:55.293Z,23.98
2022-08-05T20:29:04.659Z,23.91
2022-08-05T20:32:10.709Z,23.94
2022-08-05T20:35:18.400Z,23.91
2022-08-05T20:38:27.277Z,23.83
2022-08-05T20:41:44.239Z,23.78
2022-08-05T20:44:53.600Z,23.72
2022-08-05T20:48:00.183Z,23.68
2022-08-05T20:51:09.688Z,23.66
2022-08-05T20:54:20.215Z,23.61
2022-08-05T20:57:43.631Z,23.56
2022-08-05T21:00:59.316Z,23.57
2022-08-05T21:04:07.351Z,23.63
2022-08-05T21:07:16.100Z,23.52
2022-08-05T21:10:23.887Z,23.42
2022-08-05T21:13:48.074Z,23.36
2022-08-05T21:17:01.032Z,23.30
2022-08-05T21:20:09.935Z,23.20
2022-08-05T21:23:19.006Z,23.18
2022-08-05T21:26:26.457Z,23.23
2022-08-05T21:29:41.362Z,23.28
2022-08-05T21:32:49.552Z,23.31
2022-08-05T21:35:59.143Z,23.28
2022-08-05T21:39:05.803Z,23.25
2022-08-05T21:42:30.552Z,23.23
2022-08-05T21:45:51.895Z,23.19
2022-08-05T21:49:07.241Z,23.13
2022-08-05T21:52:15.666Z,23.13
2022-08-05T21:56:04.141Z,23.07
2022-08-05T21:58:57.600Z,23.07
2022-08-05T22:02:03.721Z,23.07
2022-08-05T22:05:18.288Z,23.21
2022-08-05T22:08:32.824Z,23.23
2022-08-05T22:11:38.370Z,23.25
2022-08-05T22:14:46.769Z,23.34
2022-08-05T22:18:06.818Z,23.41
2022-08-05T22:21:19.215Z,23.37
2022-08-05T22:24:40.218Z,23.32
2022-08-05T22:28:09.152Z,23.17
2022-08-05T22:31:17.505Z,23.09
2022-08-05T22:34:28.186Z,23.12
2022-08-05T22:37:59.189Z,23.03
2022-08-05T22:41:09.518Z,22.83
2022-08-05T22:44:16.266Z,22.59
2022-08-05T22:47:31.263Z,22.28
2022-08-05T22:50:36.956Z,22.14
2022-08-05T22:54:06.976Z,22.05
2022-08-05T22:57:12.983Z,22.02
2022-08-05T23:00:26.620Z,21.98
2022-08-05T23:03:58.079Z,21.97
2022-08-05T23:07:09.409Z,21.92
2022-08-05T23:10:23.561Z,21.84
2022-08-05T23:13:29.619Z,21.64
2022-08-05T23:16:47.735Z,21.63
2022-08-05T23:20:05.558Z,21.46
2022-08-05T23:23:17.486Z,21.33
2022-08-05T23:26:25.904Z,21.17
2022-08-05T23:29:34.668Z,20.99
2022-08-05T23:32:45.234Z,20.91
2022-08-05T23:35:51.011Z,20.79
2022-08-05T23:38:59.345Z,20.54
2022-08-05T23:42:12.091Z,20.54
2022-08-05T23:45:23.721Z,20.80
2022-08-05T23:48:33.245Z,21.03
2022-08-05T23:51:55.350Z,21.11
2022-08-05T23:55:07.043Z,21.07
2022-08-05T23:58:31.857Z,21.03
